Time;durP1;ratioP1;P1;durP2;ratioP2;P2;SDS_P1;SDS_P2;PMS_P1;PMS_P2;Temp;Humidity;BMP_temperature;BMP_pressure;BME280_temperature;BME280_humidity;BME280_pressure;Samples;Min_cycle;Max_cycle;Signal;HPM_P1;HPM_P2
2023/12/06 00:00:32;;;;;;;1.57;1.57;;;;;;;;;;5051781;28;20645;-70
2023/12/06 00:03:01;;;;;;;1.67;1.60;;;;;;;;;;5049831;28;20547;-69
2023/12/06 00:05:28;;;;;;;1.50;1.50;;;;;;;;;;5049009;28;20233;-70
2023/12/06 00:07:56;;;;;;;1.60;1.60;;;;;;;;;;5046702;28;20277;-69
2023/12/06 00:10:23;;;;;;;1.60;1.50;;;;;;;;;;5048934;28;20657;-70
2023/12/06 00:12:51;;;;;;;1.53;1.53;;;;;;;;;;5049137;28;20198;-70
2023/12/06 00:15:18;;;;;;;1.67;1.57;;;;;;;;;;5050463;28;20220;-70
2023/12/06 00:17:45;;;;;;;1.90;1.80;;;;;;;;;;5053729;28;20242;-70
2023/12/06 00:20:13;;;;;;;1.67;1.60;;;;;;;;;;5048480;28;20289;-70
2023/12/06 00:22:41;;;;;;;1.47;1.47;;;;;;;;;;5034845;28;20695;-69
2023/12/06 00:25:08;;;;;;;1.70;1.60;;;;;;;;;;5045661;28;20212;-71
2023/12/06 00:27:35;;;;;;;1.50;1.50;;;;;;;;;;5052206;28;20216;-70
2023/12/06 00:30:03;;;;;;;1.40;1.40;;;;;;;;;;5050983;28;20286;-69
2023/12/06 00:32:30;;;;;;;2.27;2.10;;;;;;;;;;5041015;28;20198;-69
2023/12/06 00:34:58;;;;;;;1.60;1.50;;;;;;;;;;5039237;28;20855;-69
2023/12/06 00:37:26;;;;;;;1.30;1.30;;;;;;;;;;5046512;28;20282;-70
2023/12/06 00:39:54;;;;;;;1.40;1.40;;;;;;;;;;5046691;28;20209;-70
2023/12/06 00:42:21;;;;;;;1.20;1.20;;;;;;;;;;5047542;28;20215;-69
2023/12/06 00:44:48;;;;;;;1.40;1.40;;;;;;;;;;5055440;28;20194;-70
2023/12/06 00:47:15;;;;;;;1.57;1.50;;;;;;;;;;5039841;28;20202;-70
2023/12/06 00:49:43;;;;;;;1.37;1.37;;;;;;;;;;5021688;28;20222;-69
2023/12/06 00:52:10;;;;;;;1.30;1.30;;;;;;;;;;5039326;28;20211;-68
2023/12/06 00:54:37;;;;;;;2.30;1.40;;;;;;;;;;5039247;28;20228;-71
2023/12/06 00:57:05;;;;;;;2.30;1.60;;;;;;;;;;5052929;28;20218;-69
2023/12/06 00:59:32;;;;;;;1.43;1.43;;;;;;;;;;5043318;28;20226;-70
2023/12/06 01:01:59;;;;;;;1.30;1.30;;;;;;;;;;5046769;28;20356;-71
2023/12/06 01:04:26;;;;;;;1.50;1.50;;;;;;;;;;5045168;28;20466;-68
2023/12/06 01:06:54;;;;;;;1.30;1.30;;;;;;;;;;5049643;28;20763;-70
2023/12/06 01:09:21;;;;;;;1.30;1.30;;;;;;;;;;5054775;28;20222;-69
2023/12/06 01:11:49;;;;;;;1.30;1.30;;;;;;;;;;5045796;28;20755;-69
2023/12/06 01:14:19;;;;;;;1.60;1.60;;;;;;;;;;5056604;28;20289;-68
2023/12/06 01:16:46;;;;;;;1.40;1.40;;;;;;;;;;5039769;28;20206;-70
2023/12/06 01:19:15;;;;;;;1.30;1.30;;;;;;;;;;5025381;28;20218;-70
2023/12/06 01:21:43;;;;;;;1.70;1.60;;;;;;;;;;5028897;28;20601;-71
2023/12/06 01:24:10;;;;;;;1.37;1.37;;;;;;;;;;5050227;28;21056;-70
2023/12/06 01:26:37;;;;;;;1.50;1.40;;;;;;;;;;5041279;28;20714;-70
2023/12/06 01:29:07;;;;;;;1.30;1.30;;;;;;;;;;5045136;28;20213;-71
2023/12/06 01:31:34;;;;;;;1.20;1.20;;;;;;;;;;5045940;28;20686;-71
2023/12/06 01:34:02;;;;;;;1.30;1.30;;;;;;;;;;5045440;28;20209;-70
2023/12/06 01:36:29;;;;;;;1.30;1.30;;;;;;;;;;5043506;28;20202;-69
2023/12/06 01:38:57;;;;;;;1.40;1.40;;;;;;;;;;5049120;28;20226;-70
2023/12/06 01:41:24;;;;;;;1.50;1.50;;;;;;;;;;5038145;28;20213;-70
2023/12/06 01:43:51;;;;;;;1.40;1.40;;;;;;;;;;5038832;28;20293;-70
2023/12/06 01:46:19;;;;;;;1.60;1.57;;;;;;;;;;5043141;28;20222;-70
2023/12/06 01:48:47;;;;;;;1.50;1.50;;;;;;;;;;5042393;28;20230;-70
2023/12/06 01:51:16;;;;;;;2.23;1.67;;;;;;;;;;5052158;28;20617;-70
2023/12/06 01:53:44;;;;;;;1.80;1.70;;;;;;;;;;5023778;28;20230;-70
2023/12/06 01:56:12;;;;;;;1.87;1.77;;;;;;;;;;5041188;28;20203;-71
2023/12/06 01:58:40;;;;;;;1.90;1.80;;;;;;;;;;5022721;28;20227;-70
2023/12/06 02:01:07;;;;;;;2.60;1.90;;;;;;;;;;5044898;28;20201;-70
2023/12/06 02:03:35;;;;;;;2.10;2.00;;;;;;;;;;5039811;28;20198;-70
2023/12/06 02:06:04;;;;;;;2.00;1.90;;;;;;;;;;5043111;28;20209;-71
2023/12/06 02:08:32;;;;;;;2.40;2.30;;;;;;;;;;5047646;28;20280;-69
2023/12/06 02:10:59;;;;;;;2.30;2.20;;;;;;;;;;5033088;28;20202;-70
2023/12/06 02:13:27;;;;;;;2.30;2.20;;;;;;;;;;5042055;28;20217;-70
2023/12/06 02:15:55;;;;;;;2.50;2.40;;;;;;;;;;5036908;28;20256;-69
2023/12/06 02:18:23;;;;;;;2.13;2.03;;;;;;;;;;5037571;28;20610;-69
2023/12/06 02:20:53;;;;;;;2.40;2.30;;;;;;;;;;5051855;28;20203;-70
2023/12/06 02:23:25;;;;;;;2.20;2.10;;;;;;;;;;5046801;28;20255;-69
2023/12/06 02:25:52;;;;;;;2.47;2.37;;;;;;;;;;5040446;28;20220;-70
2023/12/06 02:28:20;;;;;;;2.40;2.20;;;;;;;;;;5027269;28;20697;-70
2023/12/06 02:30:47;;;;;;;2.20;2.10;;;;;;;;;;5036627;28;20218;-71
2023/12/06 02:33:14;;;;;;;2.37;2.27;;;;;;;;;;5047077;28;20363;-70
2023/12/06 02:35:50;;;;;;;2.37;2.17;;;;;;;;;;5018330;28;20282;-70
2023/12/06 02:38:18;;;;;;;2.50;2.40;;;;;;;;;;5037013;28;20226;-70
2023/12/06 02:40:47;;;;;;;2.43;2.33;;;;;;;;;;5042959;28;20747;-70
2023/12/06 02:43:15;;;;;;;2.60;2.50;;;;;;;;;;5043805;28;20199;-70
2023/12/06 02:45:43;;;;;;;2.63;2.43;;;;;;;;;;5039334;28;20289;-70
2023/12/06 02:48:10;;;;;;;2.50;2.37;;;;;;;;;;5041001;28;20235;-70
2023/12/06 02:50:38;;;;;;;2.10;2.00;;;;;;;;;;5041139;28;20210;-70
2023/12/06 02:53:05;;;;;;;2.60;2.40;;;;;;;;;;5041846;28;20651;-70
2023/12/06 02:55:32;;;;;;;2.20;2.10;;;;;;;;;;5036706;28;20216;-70
2023/12/06 02:57:59;;;;;;;2.30;2.20;;;;;;;;;;5039723;28;20744;-70
2023/12/06 03:00:26;;;;;;;2.20;2.10;;;;;;;;;;5033781;28;20201;-71
2023/12/06 03:02:54;;;;;;;2.20;2.10;;;;;;;;;;5045024;28;20205;-70
2023/12/06 03:05:21;;;;;;;2.30;2.20;;;;;;;;;;5039496;28;20201;-71
2023/12/06 03:07:48;;;;;;;2.17;2.07;;;;;;;;;;5035861;28;20945;-70
2023/12/06 03:10:16;;;;;;;2.10;2.00;;;;;;;;;;5045247;28;20221;-70
2023/12/06 03:12:43;;;;;;;1.87;1.77;;;;;;;;;;5041448;28;20260;-70
2023/12/06 03:15:10;;;;;;;1.80;1.70;;;;;;;;;;5050751;28;20595;-70
2023/12/06 03:17:37;;;;;;;1.90;1.80;;;;;;;;;;5044523;28;20225;-70
2023/12/06 03:20:06;;;;;;;1.63;1.60;;;;;;;;;;5056247;28;20728;-71
2023/12/06 03:22:34;;;;;;;1.90;1.80;;;;;;;;;;5038335;28;20203;-70
2023/12/06 03:25:01;;;;;;;1.80;1.70;;;;;;;;;;5036281;28;20211;-70
2023/12/06 03:27:28;;;;;;;1.97;1.87;;;;;;;;;;5045850;28;20218;-68
2023/12/06 03:29:55;;;;;;;2.00;1.90;;;;;;;;;;5055675;28;20217;-71
2023/12/06 03:32:23;;;;;;;2.00;1.90;;;;;;;;;;5054728;28;20209;-69
2023/12/06 03:34:50;;;;;;;1.97;1.87;;;;;;;;;;5038810;28;20241;-70
2023/12/06 03:37:18;;;;;;;2.20;2.00;;;;;;;;;;5052671;28;20271;-70
2023/12/06 03:39:46;;;;;;;2.30;2.00;;;;;;;;;;5027777;28;20306;-71
2023/12/06 03:42:13;;;;;;;2.17;2.07;;;;;;;;;;5034022;28;20329;-69
2023/12/06 03:44:41;;;;;;;2.33;2.23;;;;;;;;;;5038185;28;20202;-70
2023/12/06 03:47:08;;;;;;;2.30;2.20;;;;;;;;;;5037930;28;20556;-70
2023/12/06 03:49:36;;;;;;;2.50;2.40;;;;;;;;;;5041471;28;20268;-70
2023/12/06 03:52:03;;;;;;;2.90;2.70;;;;;;;;;;5053835;28;20205;-70
2023/12/06 03:54:31;;;;;;;2.47;2.37;;;;;;;;;;5040930;28;20233;-70
2023/12/06 03:56:59;;;;;;;2.57;2.47;;;;;;;;;;5037261;28;20579;-69
2023/12/06 03:59:26;;;;;;;2.83;2.63;;;;;;;;;;5044107;28;20258;-70
2023/12/06 04:01:55;;;;;;;3.40;2.60;;;;;;;;;;5051810;28;20209;-70
2023/12/06 04:04:22;;;;;;;2.73;2.60;;;;;;;;;;5039264;28;20207;-71
2023/12/06 04:06:49;;;;;;;2.83;2.63;;;;;;;;;;5043127;28;20267;-71
2023/12/06 04:09:17;;;;;;;3.47;3.17;;;;;;;;;;5044720;28;20316;-69
2023/12/06 04:11:44;;;;;;;3.30;3.10;;;;;;;;;;5043232;28;20874;-71
2023/12/06 04:14:12;;;;;;;3.30;3.10;;;;;;;;;;5043448;28;20213;-71
2023/12/06 04:16:39;;;;;;;3.37;3.17;;;;;;;;;;5043057;28;20229;-70
2023/12/06 04:19:06;;;;;;;3.30;3.10;;;;;;;;;;5053682;28;20894;-71
2023/12/06 04:21:34;;;;;;;3.10;2.90;;;;;;;;;;5047391;28;20202;-71
2023/12/06 04:24:01;;;;;;;3.53;3.23;;;;;;;;;;5050052;28;20687;-71
2023/12/06 04:26:28;;;;;;;3.20;3.00;;;;;;;;;;5049556;28;20202;-71
2023/12/06 04:28:56;;;;;;;3.67;3.20;;;;;;;;;;5036994;28;20222;-70
2023/12/06 04:31:23;;;;;;;3.67;3.37;;;;;;;;;;5033960;28;20232;-70
2023/12/06 04:33:51;;;;;;;3.77;3.47;;;;;;;;;;5036831;28;20212;-71
2023/12/06 04:36:18;;;;;;;3.43;3.20;;;;;;;;;;5051504;28;20206;-70
2023/12/06 04:38:46;;;;;;;3.70;3.30;;;;;;;;;;5046504;28;20234;-69
2023/12/06 04:41:13;;;;;;;3.30;3.10;;;;;;;;;;5035966;28;20226;-70
2023/12/06 04:43:41;;;;;;;3.13;2.93;;;;;;;;;;5035268;28;20211;-70
2023/12/06 04:46:08;;;;;;;4.57;2.73;;;;;;;;;;5035403;28;20210;-71
2023/12/06 04:48:37;;;;;;;3.13;2.93;;;;;;;;;;5036565;28;21445;-70
2023/12/06 04:51:04;;;;;;;2.93;2.73;;;;;;;;;;5038158;28;20206;-71
2023/12/06 04:53:31;;;;;;;3.20;3.00;;;;;;;;;;5035899;28;20301;-71
2023/12/06 04:55:59;;;;;;;3.50;2.83;;;;;;;;;;5043434;28;20606;-70
2023/12/06 04:58:26;;;;;;;2.70;2.50;;;;;;;;;;5036210;28;20226;-72
2023/12/06 05:00:54;;;;;;;2.60;2.50;;;;;;;;;;5033582;28;20206;-70
2023/12/06 05:03:22;;;;;;;2.47;2.27;;;;;;;;;;5037438;28;20207;-70
2023/12/06 05:05:49;;;;;;;2.83;2.63;;;;;;;;;;5034215;28;20285;-70
2023/12/06 05:08:17;;;;;;;2.90;2.70;;;;;;;;;;5039630;28;20222;-70
2023/12/06 05:10:44;;;;;;;3.23;3.03;;;;;;;;;;5038864;28;20601;-70
2023/12/06 05:13:13;;;;;;;2.97;2.77;;;;;;;;;;5025961;28;20206;-71
2023/12/06 05:15:44;;;;;;;2.80;2.60;;;;;;;;;;5035658;28;20210;-70
2023/12/06 05:18:12;;;;;;;2.93;2.30;;;;;;;;;;5046522;28;20302;-70
2023/12/06 05:20:39;;;;;;;2.50;2.30;;;;;;;;;;5052079;28;20204;-69
2023/12/06 05:23:06;;;;;;;2.70;2.50;;;;;;;;;;5035752;28;20215;-71
2023/12/06 05:25:35;;;;;;;2.23;2.13;;;;;;;;;;5032707;28;20219;-71
2023/12/06 05:28:04;;;;;;;2.50;2.40;;;;;;;;;;5052426;28;20233;-71
2023/12/06 05:30:32;;;;;;;2.90;2.70;;;;;;;;;;5043746;28;20207;-71
2023/12/06 05:32:59;;;;;;;2.33;2.23;;;;;;;;;;5056281;28;20202;-71
2023/12/06 05:35:26;;;;;;;5.30;4.77;;;;;;;;;;5061147;28;20213;-70
2023/12/06 05:37:54;;;;;;;2.63;2.43;;;;;;;;;;5049053;28;20241;-71
2023/12/06 05:40:21;;;;;;;2.37;2.23;;;;;;;;;;5044950;28;20198;-71
2023/12/06 05:42:48;;;;;;;2.40;2.30;;;;;;;;;;5041426;28;20241;-70
2023/12/06 05:45:16;;;;;;;2.90;2.50;;;;;;;;;;5044046;28;20572;-70
2023/12/06 05:47:43;;;;;;;3.07;2.87;;;;;;;;;;5025150;28;20754;-71
2023/12/06 05:50:12;;;;;;;2.33;2.20;;;;;;;;;;5051832;28;20236;-71
2023/12/06 05:52:40;;;;;;;4.20;3.70;;;;;;;;;;5030833;28;20232;-72
2023/12/06 05:55:08;;;;;;;4.17;3.77;;;;;;;;;;5039444;28;20203;-71
2023/12/06 05:57:36;;;;;;;3.30;3.00;;;;;;;;;;5041734;28;20294;-70
2023/12/06 06:00:05;;;;;;;3.30;3.00;;;;;;;;;;5038229;28;20798;-70
2023/12/06 06:02:33;;;;;;;4.70;3.63;;;;;;;;;;5039258;28;20205;-71
2023/12/06 06:05:00;;;;;;;4.10;3.77;;;;;;;;;;5039542;28;20210;-71
2023/12/06 06:07:28;;;;;;;7.13;5.90;;;;;;;;;;5048460;28;20670;-71
2023/12/06 06:09:56;;;;;;;2.70;2.50;;;;;;;;;;5038522;28;20637;-71
2023/12/06 06:12:30;;;;;;;2.83;2.63;;;;;;;;;;5035784;28;20259;-70
2023/12/06 06:14:58;;;;;;;3.47;3.27;;;;;;;;;;5054298;28;20284;-70
2023/12/06 06:17:25;;;;;;;5.10;2.70;;;;;;;;;;5046279;28;20211;-70
2023/12/06 06:19:53;;;;;;;3.50;3.10;;;;;;;;;;5041194;28;20667;-70
2023/12/06 06:22:20;;;;;;;2.50;2.40;;;;;;;;;;5033734;28;20329;-70
2023/12/06 06:24:47;;;;;;;3.10;2.90;;;;;;;;;;5027841;28;20215;-70
2023/12/06 06:27:15;;;;;;;3.50;3.20;;;;;;;;;;5044497;28;20201;-70
2023/12/06 06:29:44;;;;;;;13.70;6.30;;;;;;;;;;5049217;28;20308;-71
2023/12/06 06:32:11;;;;;;;3.63;3.30;;;;;;;;;;5046969;28;20738;-69
2023/12/06 06:34:38;;;;;;;5.13;3.37;;;;;;;;;;5051823;28;20201;-70
2023/12/06 06:37:09;;;;;;;8.67;6.50;;;;;;;;;;5053017;28;20209;-71
2023/12/06 06:39:37;;;;;;;5.33;3.70;;;;;;;;;;5043269;28;20239;-71
2023/12/06 06:42:06;;;;;;;4.63;3.40;;;;;;;;;;5047185;28;20199;-71
2023/12/06 06:44:34;;;;;;;4.30;3.57;;;;;;;;;;5037852;28;20203;-70
2023/12/06 06:47:01;;;;;;;4.23;3.83;;;;;;;;;;5047046;28;20210;-71
2023/12/06 06:49:29;;;;;;;9.73;5.10;;;;;;;;;;5025324;28;20249;-70
2023/12/06 06:51:56;;;;;;;4.53;4.13;;;;;;;;;;5031330;28;20222;-71
2023/12/06 06:54:24;;;;;;;4.27;3.87;;;;;;;;;;5031493;28;20205;-71
2023/12/06 06:56:52;;;;;;;4.70;4.30;;;;;;;;;;5042135;28;20207;-71
2023/12/06 06:59:19;;;;;;;5.57;4.37;;;;;;;;;;5033965;28;20602;-71
2023/12/06 07:01:46;;;;;;;6.00;4.73;;;;;;;;;;5043902;28;20218;-71
2023/12/06 07:04:14;;;;;;;9.10;6.13;;;;;;;;;;5045207;28;20205;-71
2023/12/06 07:06:42;;;;;;;6.93;5.77;;;;;;;;;;5047774;28;20671;-71
2023/12/06 07:09:09;;;;;;;10.83;6.87;;;;;;;;;;5042528;28;20777;-71
2023/12/06 07:11:37;;;;;;;9.33;6.47;;;;;;;;;;5024194;28;20207;-71
2023/12/06 07:14:04;;;;;;;6.40;5.20;;;;;;;;;;5041484;28;20209;-70
2023/12/06 07:16:31;;;;;;;8.30;4.97;;;;;;;;;;5047918;28;20205;-71
2023/12/06 07:18:58;;;;;;;8.53;6.17;;;;;;;;;;5053057;28;20236;-71
2023/12/06 07:21:26;;;;;;;6.00;5.40;;;;;;;;;;5049627;28;20285;-71
2023/12/06 07:23:54;;;;;;;7.33;5.70;;;;;;;;;;5041535;28;20564;-71
2023/12/06 07:26:21;;;;;;;6.83;5.43;;;;;;;;;;5048036;28;20201;-70
2023/12/06 07:28:53;;;;;;;16.37;9.07;;;;;;;;;;5043782;28;20754;-71
2023/12/06 07:31:27;;;;;;;5.43;4.50;;;;;;;;;;5039847;28;20241;-70
2023/12/06 07:33:55;;;;;;;9.60;6.73;;;;;;;;;;5051970;28;20198;-71
2023/12/06 07:36:37;;;;;;;11.37;7.27;;;;;;;;;;5046817;28;20245;-72
2023/12/06 07:39:07;;;;;;;3.60;3.30;;;;;;;;;;5021970;28;20606;-71
2023/12/06 07:41:34;;;;;;;4.03;3.63;;;;;;;;;;5042687;28;20238;-70
2023/12/06 07:44:02;;;;;;;3.70;3.13;;;;;;;;;;5054133;28;20204;-71
2023/12/06 07:46:29;;;;;;;3.13;2.83;;;;;;;;;;5027974;28;20284;-71
2023/12/06 07:48:56;;;;;;;3.87;3.30;;;;;;;;;;5054453;28;20225;-71
2023/12/06 07:51:23;;;;;;;3.30;3.00;;;;;;;;;;5056527;28;20206;-71
2023/12/06 07:53:52;;;;;;;2.90;2.70;;;;;;;;;;5049355;28;20296;-71
2023/12/06 07:56:19;;;;;;;3.40;3.10;;;;;;;;;;5047084;28;20215;-71
2023/12/06 07:58:46;;;;;;;3.73;3.40;;;;;;;;;;5029194;28;20234;-71
2023/12/06 08:01:14;;;;;;;2.80;2.60;;;;;;;;;;5038870;28;20626;-71
2023/12/06 08:03:44;;;;;;;3.33;2.80;;;;;;;;;;5039492;28;20663;-71
2023/12/06 08:06:12;;;;;;;2.90;2.70;;;;;;;;;;5049991;28;20643;-71
2023/12/06 08:08:39;;;;;;;2.83;2.63;;;;;;;;;;5046044;28;20234;-72
2023/12/06 08:11:06;;;;;;;2.57;2.40;;;;;;;;;;5021217;28;20207;-71
2023/12/06 08:13:34;;;;;;;2.20;2.00;;;;;;;;;;5050050;28;20672;-71
2023/12/06 08:16:02;;;;;;;2.00;1.80;;;;;;;;;;5044799;28;20202;-71
2023/12/06 08:18:30;;;;;;;2.00;1.80;;;;;;;;;;5045631;28;20747;-71
2023/12/06 08:20:58;;;;;;;1.63;1.60;;;;;;;;;;5043093;28;20205;-72
2023/12/06 08:23:25;;;;;;;1.70;1.60;;;;;;;;;;5047000;28;20206;-72
2023/12/06 08:25:52;;;;;;;1.63;1.63;;;;;;;;;;5046613;28;20235;-71
2023/12/06 08:28:20;;;;;;;3.10;1.80;;;;;;;;;;5043772;28;20226;-71
2023/12/06 08:30:47;;;;;;;2.33;1.90;;;;;;;;;;5045160;28;20238;-72
2023/12/06 08:33:15;;;;;;;2.37;1.60;;;;;;;;;;5052554;28;20202;-71
2023/12/06 08:35:42;;;;;;;1.67;1.57;;;;;;;;;;5050394;28;20297;-71
2023/12/06 08:38:10;;;;;;;1.50;1.50;;;;;;;;;;5048629;28;20229;-71
2023/12/06 08:40:37;;;;;;;1.77;1.67;;;;;;;;;;5053055;28;20221;-71
2023/12/06 08:43:04;;;;;;;1.63;1.57;;;;;;;;;;5018667;28;20209;-71
2023/12/06 08:45:33;;;;;;;1.67;1.63;;;;;;;;;;5024488;28;21652;-72
2023/12/06 08:48:01;;;;;;;1.70;1.70;;;;;;;;;;5043052;28;20568;-72
2023/12/06 08:50:29;;;;;;;1.80;1.70;;;;;;;;;;5047373;28;20240;-72
2023/12/06 08:52:56;;;;;;;3.07;1.80;;;;;;;;;;5039132;28;20590;-71
2023/12/06 08:55:23;;;;;;;1.73;1.63;;;;;;;;;;5041564;28;20283;-72
2023/12/06 08:57:51;;;;;;;1.80;1.70;;;;;;;;;;5042056;28;20748;-71
2023/12/06 09:00:19;;;;;;;1.80;1.70;;;;;;;;;;5052503;28;20218;-72
2023/12/06 09:02:47;;;;;;;1.77;1.67;;;;;;;;;;5043204;28;20249;-71
2023/12/06 09:05:14;;;;;;;2.20;2.10;;;;;;;;;;5040686;28;20701;-71
2023/12/06 09:07:42;;;;;;;1.97;1.73;;;;;;;;;;5036020;28;20296;-71
2023/12/06 09:10:10;;;;;;;2.47;1.87;;;;;;;;;;5032369;28;20211;-72
2023/12/06 09:12:37;;;;;;;1.80;1.70;;;;;;;;;;5043194;28;20211;-72
2023/12/06 09:15:05;;;;;;;2.00;1.90;;;;;;;;;;5041505;28;20206;-72
2023/12/06 09:17:32;;;;;;;2.00;1.90;;;;;;;;;;5040290;28;20202;-71
2023/12/06 09:20:00;;;;;;;1.90;1.80;;;;;;;;;;5022238;28;20262;-71
2023/12/06 09:22:28;;;;;;;2.00;1.90;;;;;;;;;;5039189;28;20721;-72
2023/12/06 09:24:55;;;;;;;2.20;2.00;;;;;;;;;;5046506;28;20206;-71
2023/12/06 09:27:23;;;;;;;2.80;1.90;;;;;;;;;;5049161;28;20229;-72
2023/12/06 09:29:51;;;;;;;1.80;1.70;;;;;;;;;;5045265;28;20753;-72
2023/12/06 09:32:18;;;;;;;3.10;2.80;;;;;;;;;;5034538;28;20679;-71
2023/12/06 09:34:46;;;;;;;2.10;2.00;;;;;;;;;;5040107;28;20229;-71
2023/12/06 09:37:16;;;;;;;2.10;2.00;;;;;;;;;;5037570;28;20302;-71
2023/12/06 09:39:43;;;;;;;2.00;1.90;;;;;;;;;;5041851;28;20305;-71
2023/12/06 09:42:11;;;;;;;2.80;2.20;;;;;;;;;;5041562;28;20292;-72
2023/12/06 09:44:39;;;;;;;2.30;1.93;;;;;;;;;;5038941;28;20201;-71
2023/12/06 09:47:06;;;;;;;1.50;1.50;;;;;;;;;;5031081;28;20305;-72
2023/12/06 09:49:34;;;;;;;2.20;1.87;;;;;;;;;;5047060;28;20233;-70
2023/12/06 09:52:07;;;;;;;2.00;1.90;;;;;;;;;;5042415;28;20198;-72
2023/12/06 09:54:38;;;;;;;2.20;2.00;;;;;;;;;;5037334;28;20202;-72
2023/12/06 09:57:05;;;;;;;2.07;1.97;;;;;;;;;;5022885;28;20667;-72
2023/12/06 09:59:33;;;;;;;2.10;2.00;;;;;;;;;;5032536;28;20602;-72
2023/12/06 10:02:01;;;;;;;2.00;1.90;;;;;;;;;;5050699;28;20194;-72
2023/12/06 10:04:28;;;;;;;2.40;2.30;;;;;;;;;;5029753;28;20216;-72
2023/12/06 10:06:56;;;;;;;2.37;2.20;;;;;;;;;;5047291;28;20206;-72
2023/12/06 10:09:23;;;;;;;2.20;2.10;;;;;;;;;;5043121;28;20235;-72
2023/12/06 10:11:52;;;;;;;2.53;2.30;;;;;;;;;;5046216;28;20211;-70
2023/12/06 10:14:20;;;;;;;2.10;2.00;;;;;;;;;;5054939;28;20212;-72
2023/12/06 10:16:47;;;;;;;2.70;2.50;;;;;;;;;;5047597;28;20412;-72
2023/12/06 10:19:23;;;;;;;2.90;2.70;;;;;;;;;;5047276;28;20675;-72
2023/12/06 10:21:51;;;;;;;2.97;2.77;;;;;;;;;;5046516;28;20198;-72
2023/12/06 10:24:18;;;;;;;4.53;3.60;;;;;;;;;;5041035;28;20237;-72
2023/12/06 10:26:49;;;;;;;7.67;5.17;;;;;;;;;;5041732;28;20697;-72
2023/12/06 10:29:16;;;;;;;3.30;3.00;;;;;;;;;;5040733;28;20292;-72
2023/12/06 10:31:45;;;;;;;3.80;3.10;;;;;;;;;;5040743;28;20203;-71
2023/12/06 10:34:14;;;;;;;2.70;2.50;;;;;;;;;;5047006;28;20247;-71
2023/12/06 10:36:42;;;;;;;3.20;2.90;;;;;;;;;;5040393;28;20333;-70
2023/12/06 10:39:11;;;;;;;2.77;2.57;;;;;;;;;;5032673;28;20327;-72
2023/12/06 10:41:39;;;;;;;3.07;2.87;;;;;;;;;;5039955;28;20237;-72
2023/12/06 10:44:08;;;;;;;3.17;2.87;;;;;;;;;;5026123;28;20649;-72
2023/12/06 10:46:37;;;;;;;2.70;2.50;;;;;;;;;;5042241;28;20293;-71
2023/12/06 10:49:04;;;;;;;3.00;2.80;;;;;;;;;;5036812;28;20233;-70
2023/12/06 10:51:33;;;;;;;3.57;3.27;;;;;;;;;;5042119;28;20621;-72
2023/12/06 10:54:01;;;;;;;3.30;3.10;;;;;;;;;;5045840;28;20261;-72
2023/12/06 10:56:29;;;;;;;3.57;3.27;;;;;;;;;;5041068;28;20233;-71
2023/12/06 10:58:56;;;;;;;3.23;3.00;;;;;;;;;;5030025;28;20222;-72
2023/12/06 11:01:26;;;;;;;4.37;3.37;;;;;;;;;;5037876;28;20229;-72
2023/12/06 11:03:55;;;;;;;4.37;3.37;;;;;;;;;;5042913;28;20206;-71
2023/12/06 11:06:44;;;;;;;3.47;3.17;;;;;;;;;;5045174;28;20268;-71
2023/12/06 11:09:19;;;;;;;3.97;3.67;;;;;;;;;;4998379;28;20246;-71
2023/12/06 11:11:53;;;;;;;3.93;3.63;;;;;;;;;;5041873;28;20206;-71
2023/12/06 11:14:41;;;;;;;3.63;3.33;;;;;;;;;;5034317;28;20370;-71
2023/12/06 11:17:12;;;;;;;4.10;3.73;;;;;;;;;;5039106;28;20209;-71
2023/12/06 11:19:40;;;;;;;4.23;3.83;;;;;;;;;;5043164;28;20229;-71
2023/12/06 11:22:07;;;;;;;4.07;3.67;;;;;;;;;;5051285;28;20209;-71
2023/12/06 11:24:36;;;;;;;5.07;4.53;;;;;;;;;;5053182;28;20209;-72
2023/12/06 11:27:04;;;;;;;5.13;4.73;;;;;;;;;;5043485;28;20213;-71
2023/12/06 11:29:31;;;;;;;4.30;3.90;;;;;;;;;;5047459;28;20287;-71
2023/12/06 11:32:00;;;;;;;4.07;3.70;;;;;;;;;;5058601;28;20198;-71
2023/12/06 11:34:34;;;;;;;4.37;3.97;;;;;;;;;;5042589;28;20277;-70
2023/12/06 11:37:03;;;;;;;4.03;3.70;;;;;;;;;;5047652;28;20577;-71
2023/12/06 11:39:31;;;;;;;4.60;4.20;;;;;;;;;;5053479;28;20230;-70
2023/12/06 11:42:00;;;;;;;4.50;3.63;;;;;;;;;;5053411;28;20213;-71
2023/12/06 11:44:27;;;;;;;4.53;4.13;;;;;;;;;;5040230;28;20637;-72
2023/12/06 11:46:57;;;;;;;4.63;4.13;;;;;;;;;;5052833;28;20556;-71
2023/12/06 11:49:26;;;;;;;5.13;4.73;;;;;;;;;;5050156;28;20724;-72
2023/12/06 11:52:00;;;;;;;4.70;4.30;;;;;;;;;;5039078;28;20249;-71
2023/12/06 11:54:28;;;;;;;4.60;4.20;;;;;;;;;;5044306;28;20268;-71
2023/12/06 11:57:06;;;;;;;5.10;4.60;;;;;;;;;;5050458;28;20198;-71
2023/12/06 11:59:34;;;;;;;4.60;4.20;;;;;;;;;;5048830;28;20232;-72
2023/12/06 12:02:02;;;;;;;4.93;4.40;;;;;;;;;;5040503;28;20660;-72
2023/12/06 12:04:30;;;;;;;4.03;3.73;;;;;;;;;;5052450;28;20209;-71
2023/12/06 12:07:01;;;;;;;5.00;4.60;;;;;;;;;;5025816;28;20273;-72
2023/12/06 12:09:32;;;;;;;5.70;5.10;;;;;;;;;;5024239;28;20315;-71
2023/12/06 12:11:59;;;;;;;4.27;3.87;;;;;;;;;;5048318;28;20205;-71
2023/12/06 12:14:33;;;;;;;4.50;4.10;;;;;;;;;;5047000;28;20203;-71
2023/12/06 12:17:02;;;;;;;4.17;3.87;;;;;;;;;;5027484;28;20297;-72
2023/12/06 12:19:30;;;;;;;4.67;4.27;;;;;;;;;;5047055;28;20226;-72
2023/12/06 12:22:07;;;;;;;4.60;4.13;;;;;;;;;;5050098;28;20202;-72
2023/12/06 12:24:34;;;;;;;4.60;4.17;;;;;;;;;;5048283;28;20306;-72
2023/12/06 12:27:04;;;;;;;18.63;11.07;;;;;;;;;;5043938;28;20547;-69
2023/12/06 12:29:32;;;;;;;4.90;4.40;;;;;;;;;;5052799;28;20246;-70
2023/12/06 12:32:00;;;;;;;5.80;4.50;;;;;;;;;;5052445;28;20202;-71
2023/12/06 12:34:28;;;;;;;5.47;4.93;;;;;;;;;;5042608;28;20635;-72
2023/12/06 12:36:59;;;;;;;5.67;5.00;;;;;;;;;;5047466;28;20211;-68
2023/12/06 12:39:27;;;;;;;5.10;4.70;;;;;;;;;;5049645;28;20674;-71
2023/12/06 12:41:56;;;;;;;5.57;4.80;;;;;;;;;;5042807;28;20228;-71
2023/12/06 12:44:23;;;;;;;5.57;5.00;;;;;;;;;;5043991;28;20217;-72
2023/12/06 12:46:52;;;;;;;5.20;4.70;;;;;;;;;;5050306;28;20690;-71
2023/12/06 12:49:31;;;;;;;5.97;4.80;;;;;;;;;;5025040;28;20227;-71
2023/12/06 12:52:02;;;;;;;5.33;4.80;;;;;;;;;;5045333;28;20598;-71
2023/12/06 12:54:30;;;;;;;5.33;4.80;;;;;;;;;;5042282;28;20275;-71
2023/12/06 12:57:01;;;;;;;5.43;4.93;;;;;;;;;;5049884;28;20202;-72
2023/12/06 12:59:31;;;;;;;6.43;5.53;;;;;;;;;;5039922;28;20243;-70
2023/12/06 13:01:59;;;;;;;6.93;5.57;;;;;;;;;;5037111;28;20233;-71
2023/12/06 13:04:27;;;;;;;6.37;5.03;;;;;;;;;;5048121;28;20215;-72
2023/12/06 13:06:54;;;;;;;5.63;5.13;;;;;;;;;;5048267;28;20256;-71
2023/12/06 13:09:22;;;;;;;6.50;5.30;;;;;;;;;;5043901;28;20432;-71
2023/12/06 13:11:49;;;;;;;7.30;5.90;;;;;;;;;;5044704;28;20606;-70
2023/12/06 13:14:18;;;;;;;6.67;6.07;;;;;;;;;;5051770;28;20202;-70
2023/12/06 13:16:45;;;;;;;6.90;6.30;;;;;;;;;;5043767;28;20214;-72
2023/12/06 13:19:13;;;;;;;7.63;6.13;;;;;;;;;;5041416;28;20240;-71
2023/12/06 13:21:40;;;;;;;6.07;5.47;;;;;;;;;;5042334;28;20696;-71
2023/12/06 13:24:08;;;;;;;6.50;5.90;;;;;;;;;;5039309;28;20237;-71
2023/12/06 13:26:37;;;;;;;6.50;5.87;;;;;;;;;;5048248;28;20616;-71
2023/12/06 13:29:04;;;;;;;6.30;5.53;;;;;;;;;;5038290;28;20249;-71
2023/12/06 13:31:31;;;;;;;7.80;5.80;;;;;;;;;;5047423;28;20211;-71
2023/12/06 13:33:58;;;;;;;6.13;5.53;;;;;;;;;;5036404;28;20717;-72
2023/12/06 13:36:27;;;;;;;6.93;6.23;;;;;;;;;;5037817;28;20221;-71
2023/12/06 13:38:55;;;;;;;6.87;6.17;;;;;;;;;;5042787;28;20232;-71
2023/12/06 13:41:22;;;;;;;7.33;6.07;;;;;;;;;;5039899;28;20712;-71
2023/12/06 13:43:49;;;;;;;6.30;5.70;;;;;;;;;;5045457;28;20955;-72
2023/12/06 13:46:16;;;;;;;6.87;6.13;;;;;;;;;;5045668;28;20285;-70
2023/12/06 13:48:44;;;;;;;7.13;6.43;;;;;;;;;;5043051;28;20707;-71
2023/12/06 13:51:12;;;;;;;7.10;6.40;;;;;;;;;;5044979;28;22317;-71
2023/12/06 13:53:40;;;;;;;6.80;6.10;;;;;;;;;;5035786;28;20247;-71
2023/12/06 13:56:07;;;;;;;8.00;6.40;;;;;;;;;;5030158;28;20206;-72
2023/12/06 13:58:35;;;;;;;6.73;6.13;;;;;;;;;;5032554;28;20233;-71
2023/12/06 14:01:03;;;;;;;6.70;6.10;;;;;;;;;;5042029;28;20223;-71
2023/12/06 14:03:31;;;;;;;6.67;5.97;;;;;;;;;;5051671;28;20655;-71
2023/12/06 14:05:58;;;;;;;7.37;6.33;;;;;;;;;;5051050;28;20657;-71
2023/12/06 14:08:26;;;;;;;7.67;6.47;;;;;;;;;;5048039;28;20237;-71
2023/12/06 14:10:54;;;;;;;8.17;6.57;;;;;;;;;;5045263;28;20627;-71
2023/12/06 14:13:22;;;;;;;7.63;6.90;;;;;;;;;;5042619;28;20214;-70
2023/12/06 14:15:50;;;;;;;8.20;7.40;;;;;;;;;;5041903;28;20226;-71
2023/12/06 14:18:18;;;;;;;8.47;7.00;;;;;;;;;;5027727;28;20672;-70
2023/12/06 14:20:47;;;;;;;7.73;6.77;;;;;;;;;;5031480;28;20230;-70
2023/12/06 14:23:14;;;;;;;10.00;7.40;;;;;;;;;;5052471;28;20194;-70
2023/12/06 14:25:42;;;;;;;6.97;6.27;;;;;;;;;;5042545;28;20647;-70
2023/12/06 14:28:09;;;;;;;8.90;7.07;;;;;;;;;;5050892;28;20269;-70
2023/12/06 14:30:37;;;;;;;9.10;7.17;;;;;;;;;;5043600;28;20245;-70
2023/12/06 14:33:04;;;;;;;10.03;7.97;;;;;;;;;;5051068;28;20206;-70
2023/12/06 14:35:32;;;;;;;7.67;6.80;;;;;;;;;;5046248;28;20241;-70
2023/12/06 14:37:59;;;;;;;7.27;6.57;;;;;;;;;;5023214;28;21285;-71
2023/12/06 14:40:27;;;;;;;7.10;6.40;;;;;;;;;;5028758;28;20222;-70
2023/12/06 14:42:55;;;;;;;8.83;7.93;;;;;;;;;;5040910;28;20199;-70
2023/12/06 14:45:23;;;;;;;7.20;6.50;;;;;;;;;;5040412;28;20288;-71
2023/12/06 14:47:53;;;;;;;8.53;6.93;;;;;;;;;;5048102;28;20358;-71